Oglesby, Texas
Current Conditions -  °F | °C
As of 11:55 AM on Monday 24 Nov 2014 (Local Time) from KPWG Reporting Station
Clear Clear  
Wind Chill: 57°   Ceiling: Unl
Heat Index: 57°   Visibility: 10mi
Dew Point: 34°   Wind: 5mph
Humidity: 41%   Direction: 340°NNW
Pressure: 30.11"   Gusts: NA
Location:  31.42°N, 97.51°W
Report Text: KPWG 241755Z AUTO 34004KT 10SM CLR 14/01 A3011 RMK AO1 10140 20060 52010
Loading
Personal Weather Stations






























Interactive Weather Map New forecast layout! Learn more

10-Day Weather Forecast

Advertisements
Track Severe Weather on mobile